Time;durP1;ratioP1;P1;durP2;ratioP2;P2;SDS_P1;SDS_P2;PMS_P1;PMS_P2;Temp;Humidity;BMP_temperature;BMP_pressure;BME280_temperature;BME280_humidity;BME280_pressure;Samples;Min_cycle;Max_cycle;Signal;HPM_P1;HPM_P2
2023/08/14 00:01:59;;;;;;;9.10;6.03;;;19.90;99.90;;;;;;5039203;28;20180;-57
2023/08/14 00:04:24;;;;;;;7.80;6.07;;;19.80;99.90;;;;;;5039512;28;20268;-58
2023/08/14 00:06:50;;;;;;;9.30;6.83;;;19.80;99.90;;;;;;5041085;28;20590;-59
2023/08/14 00:09:15;;;;;;;8.43;6.10;;;19.80;99.90;;;;;;5044168;28;20238;-58
2023/08/14 00:11:41;;;;;;;16.77;6.47;;;19.80;99.90;;;;;;5045376;28;20187;-56
2023/08/14 00:14:06;;;;;;;8.53;6.20;;;19.80;99.90;;;;;;5043185;28;20187;-56
2023/08/14 00:16:32;;;;;;;12.07;5.70;;;19.70;99.90;;;;;;5040557;28;20198;-58
2023/08/14 00:18:58;;;;;;;11.80;5.87;;;19.70;99.90;;;;;;5041090;28;20180;-58
2023/08/14 00:21:23;;;;;;;14.17;6.30;;;19.70;99.90;;;;;;5043904;28;20179;-58
2023/08/14 00:23:49;;;;;;;10.20;6.30;;;19.70;99.90;;;;;;5042324;28;20240;-57
2023/08/14 00:26:15;;;;;;;11.80;6.77;;;19.70;99.90;;;;;;5041471;28;20215;-59
2023/08/14 00:28:41;;;;;;;10.97;7.60;;;19.70;99.90;;;;;;5037668;28;20263;-58
2023/08/14 00:31:07;;;;;;;10.50;6.83;;;19.70;99.90;;;;;;5035909;28;20230;-57
2023/08/14 00:33:32;;;;;;;11.80;7.13;;;19.70;99.90;;;;;;5041452;28;20202;-58
2023/08/14 00:35:58;;;;;;;6.93;5.77;;;19.70;99.90;;;;;;5040535;28;20210;-57
2023/08/14 00:38:24;;;;;;;7.57;6.37;;;19.80;99.90;;;;;;5042594;28;20205;-57
2023/08/14 00:40:52;;;;;;;8.80;6.13;;;19.80;99.90;;;;;;5043681;28;20437;-57
2023/08/14 00:43:20;;;;;;;11.87;6.40;;;19.80;99.90;;;;;;5045274;28;20179;-57
2023/08/14 00:45:45;;;;;;;11.17;6.30;;;19.80;99.90;;;;;;5045630;28;20973;-57
2023/08/14 00:48:12;;;;;;;8.53;5.77;;;19.80;99.90;;;;;;5041599;28;20548;-57
2023/08/14 00:50:37;;;;;;;7.90;6.50;;;19.80;99.90;;;;;;5046407;28;20183;-58
2023/08/14 00:53:04;;;;;;;9.00;6.83;;;19.80;99.90;;;;;;5043331;28;20504;-58
2023/08/14 00:55:30;;;;;;;8.60;6.63;;;19.80;99.90;;;;;;5044662;28;20666;-58
2023/08/14 00:57:56;;;;;;;9.20;5.97;;;19.80;99.90;;;;;;5045113;28;20469;-58
2023/08/14 01:00:23;;;;;;;12.30;6.23;;;19.80;99.90;;;;;;5042907;28;20602;-57
2023/08/14 01:02:49;;;;;;;7.77;6.20;;;19.70;99.90;;;;;;5047759;28;20433;-57
2023/08/14 01:05:15;;;;;;;7.60;6.47;;;19.70;99.90;;;;;;5048569;28;20437;-57
2023/08/14 01:07:41;;;;;;;13.10;6.57;;;19.80;99.90;;;;;;5051431;28;20435;-57
2023/08/14 01:10:09;;;;;;;8.40;6.33;;;19.80;99.90;;;;;;5045804;28;20186;-58
2023/08/14 01:12:42;;;;;;;9.73;6.27;;;19.80;99.90;;;;;;5046633;28;20270;-57
2023/08/14 01:15:15;;;;;;;9.77;6.20;;;19.80;99.90;;;;;;5044540;28;20429;-59
2023/08/14 01:17:48;;;;;;;11.57;7.03;;;19.80;99.90;;;;;;5048742;28;20425;-57
2023/08/14 01:20:17;;;;;;;13.23;5.77;;;19.70;99.90;;;;;;5042814;28;20988;-56
2023/08/14 01:23:08;;;;;;;11.93;7.10;;;19.70;99.90;;;;;;5038705;28;20856;-57
2023/08/14 01:25:37;;;;;;;8.20;6.07;;;19.70;99.90;;;;;;5042627;28;20491;-57
2023/08/14 01:28:03;;;;;;;9.30;6.23;;;19.70;99.90;;;;;;5047207;28;20461;-58
2023/08/14 01:30:29;;;;;;;6.37;5.60;;;19.70;99.90;;;;;;5049084;28;20430;-57
2023/08/14 01:32:55;;;;;;;6.40;5.80;;;19.70;99.90;;;;;;5045485;28;20635;-58
2023/08/14 01:35:25;;;;;;;10.53;6.27;;;19.70;99.90;;;;;;5044775;28;20195;-58
2023/08/14 01:37:54;;;;;;;10.30;6.50;;;19.70;99.90;;;;;;5044166;28;20179;-57
2023/08/14 01:40:56;;;;;;;12.73;6.83;;;19.70;99.90;;;;;;5045612;28;20435;-57
2023/08/14 01:43:31;;;;;;;8.07;7.10;;;19.70;99.90;;;;;;5015757;28;20890;-56
2023/08/14 01:45:58;;;;;;;11.50;7.43;;;19.70;99.90;;;;;;5041119;28;20545;-56
2023/08/14 01:48:24;;;;;;;8.27;7.07;;;19.60;99.90;;;;;;5040695;28;20457;-58
2023/08/14 01:50:55;;;;;;;9.87;7.07;;;19.60;99.90;;;;;;5050358;28;20422;-56
2023/08/14 01:53:21;;;;;;;10.10;6.57;;;19.60;99.90;;;;;;5045181;28;20437;-56
2023/08/14 01:55:46;;;;;;;9.63;6.70;;;19.60;99.90;;;;;;5038178;28;20545;-57
2023/08/14 01:58:12;;;;;;;11.77;7.47;;;19.50;99.90;;;;;;5042514;28;20516;-57
2023/08/14 02:00:38;;;;;;;9.63;6.80;;;19.50;99.90;;;;;;5046109;28;20232;-57
2023/08/14 02:03:04;;;;;;;9.57;7.17;;;19.50;99.90;;;;;;5046502;28;20183;-57
2023/08/14 02:05:29;;;;;;;9.17;6.50;;;19.50;99.90;;;;;;5047710;28;21121;-57
2023/08/14 02:07:55;;;;;;;12.07;7.30;;;19.50;99.90;;;;;;5045359;28;20465;-56
2023/08/14 02:10:21;;;;;;;11.37;7.07;;;19.50;99.90;;;;;;5042031;28;20179;-58
2023/08/14 02:12:47;;;;;;;11.40;7.13;;;19.50;99.90;;;;;;5045777;28;20182;-57
2023/08/14 02:15:13;;;;;;;8.47;6.13;;;19.50;99.90;;;;;;5047646;28;20434;-57
2023/08/14 02:17:38;;;;;;;13.97;6.70;;;19.50;99.90;;;;;;5041761;28;20518;-57
2023/08/14 02:20:05;;;;;;;10.00;7.30;;;19.50;99.90;;;;;;5041245;28;20176;-57
2023/08/14 02:22:30;;;;;;;7.73;6.40;;;19.40;99.90;;;;;;5045655;28;20175;-58
2023/08/14 02:24:56;;;;;;;9.60;7.20;;;19.40;99.90;;;;;;5042392;28;20429;-57
2023/08/14 02:27:22;;;;;;;12.47;7.53;;;19.40;99.90;;;;;;5040678;28;20214;-57
2023/08/14 02:29:47;;;;;;;10.40;7.10;;;19.40;99.90;;;;;;5035551;28;20199;-57
2023/08/14 02:32:13;;;;;;;12.10;7.50;;;19.40;99.90;;;;;;5039394;28;20183;-58
2023/08/14 02:34:44;;;;;;;7.70;6.80;;;19.40;99.90;;;;;;5041925;28;20670;-57
2023/08/14 02:37:11;;;;;;;16.40;7.00;;;19.30;99.90;;;;;;5045488;28;20192;-56
2023/08/14 02:39:37;;;;;;;13.47;6.60;;;19.30;99.90;;;;;;5040324;28;20932;-57
2023/08/14 02:42:03;;;;;;;10.17;6.70;;;19.30;99.90;;;;;;5040046;28;20441;-57
2023/08/14 02:44:29;;;;;;;14.40;6.70;;;19.20;99.90;;;;;;5042669;28;20187;-57
2023/08/14 02:46:56;;;;;;;8.00;6.70;;;19.20;99.90;;;;;;5046251;28;20235;-57
2023/08/14 02:49:22;;;;;;;10.60;7.07;;;19.20;99.90;;;;;;5045169;28;20290;-58
2023/08/14 02:51:47;;;;;;;13.40;7.10;;;19.20;99.90;;;;;;5042730;28;20591;-56
2023/08/14 02:54:13;;;;;;;7.20;6.23;;;19.10;99.90;;;;;;5044863;28;20688;-57
2023/08/14 02:56:38;;;;;;;8.90;6.90;;;19.10;99.90;;;;;;5042267;28;20317;-56
2023/08/14 02:59:04;;;;;;;7.00;6.30;;;19.10;99.90;;;;;;5041972;28;20182;-59
2023/08/14 03:01:30;;;;;;;9.00;6.47;;;19.10;99.90;;;;;;5036238;28;20194;-57
2023/08/14 03:03:55;;;;;;;11.00;6.50;;;19.00;99.90;;;;;;5042344;28;20191;-55
2023/08/14 03:06:21;;;;;;;9.97;6.10;;;19.00;99.90;;;;;;5045480;28;20624;-57
2023/08/14 03:08:47;;;;;;;7.23;6.50;;;19.00;99.90;;;;;;5043775;28;20276;-57
2023/08/14 03:11:13;;;;;;;8.50;6.43;;;19.00;99.90;;;;;;5047663;28;20167;-58
2023/08/14 03:13:39;;;;;;;8.47;6.83;;;19.00;99.90;;;;;;5040148;28;20946;-57
2023/08/14 03:16:04;;;;;;;8.80;7.23;;;19.00;99.90;;;;;;5042594;28;20273;-56
2023/08/14 03:18:30;;;;;;;8.57;6.80;;;19.00;99.90;;;;;;5041933;28;20171;-56
2023/08/14 03:20:55;;;;;;;9.20;6.67;;;19.00;99.90;;;;;;5040582;28;20747;-55
2023/08/14 03:23:21;;;;;;;7.30;6.53;;;19.00;99.90;;;;;;5041204;28;20187;-59
2023/08/14 03:25:46;;;;;;;8.80;6.90;;;19.10;99.90;;;;;;5046523;28;20731;-57
2023/08/14 03:28:12;;;;;;;8.10;6.70;;;19.10;99.90;;;;;;5041242;28;20195;-57
2023/08/14 03:30:42;;;;;;;9.23;7.27;;;19.10;99.90;;;;;;5046563;28;20178;-58
2023/08/14 03:33:08;;;;;;;10.63;6.87;;;19.10;99.90;;;;;;5041480;28;20179;-57
2023/08/14 03:35:33;;;;;;;10.63;7.30;;;19.10;99.90;;;;;;5043708;28;20444;-57
2023/08/14 03:37:59;;;;;;;20.47;6.93;;;19.10;99.90;;;;;;5044003;28;20187;-57
2023/08/14 03:40:24;;;;;;;9.13;6.63;;;19.10;99.90;;;;;;5043386;28;20197;-57
2023/08/14 03:42:50;;;;;;;10.07;6.77;;;19.10;99.90;;;;;;5041677;28;20213;-58
2023/08/14 03:45:16;;;;;;;7.90;6.47;;;19.10;99.90;;;;;;5041446;28;20206;-58
2023/08/14 03:47:41;;;;;;;9.87;7.00;;;19.10;99.90;;;;;;5047124;28;20589;-58
2023/08/14 03:50:07;;;;;;;9.43;6.57;;;19.10;99.90;;;;;;5037979;28;20676;-57
2023/08/14 03:52:33;;;;;;;11.13;7.23;;;19.10;99.90;;;;;;5046959;28;20178;-58
2023/08/14 03:54:58;;;;;;;12.03;6.90;;;19.10;99.90;;;;;;5041144;28;20543;-58
2023/08/14 03:57:24;;;;;;;10.10;7.03;;;19.10;99.90;;;;;;5044137;28;20260;-56
2023/08/14 03:59:49;;;;;;;9.67;6.60;;;19.10;99.90;;;;;;5038454;28;20195;-56
2023/08/14 04:02:15;;;;;;;9.33;6.93;;;19.10;99.90;;;;;;5048361;28;20303;-56
2023/08/14 04:04:41;;;;;;;10.00;6.70;;;19.00;99.90;;;;;;5036680;28;20202;-57
2023/08/14 04:07:06;;;;;;;7.90;7.07;;;19.00;99.90;;;;;;5031257;28;20597;-58
2023/08/14 04:09:32;;;;;;;13.83;7.60;;;19.10;99.90;;;;;;5044171;28;20700;-60
2023/08/14 04:12:00;;;;;;;12.47;6.60;;;19.00;99.90;;;;;;5037679;28;20206;-60
2023/08/14 04:14:26;;;;;;;8.37;6.40;;;19.00;99.90;;;;;;5039101;28;20170;-59
2023/08/14 04:16:52;;;;;;;11.50;7.37;;;19.00;99.90;;;;;;5043054;28;20449;-58
2023/08/14 04:19:19;;;;;;;12.73;6.90;;;19.00;99.90;;;;;;5035894;28;20186;-59
2023/08/14 04:21:44;;;;;;;12.70;7.57;;;19.00;99.90;;;;;;5036423;28;20183;-59
2023/08/14 04:24:10;;;;;;;10.43;7.47;;;19.00;99.90;;;;;;5035435;28;20433;-58
2023/08/14 04:26:37;;;;;;;7.70;6.83;;;19.00;99.90;;;;;;5039195;28;21868;-60
2023/08/14 04:29:06;;;;;;;10.90;6.90;;;19.00;99.90;;;;;;5034234;28;20462;-58
2023/08/14 04:31:33;;;;;;;9.60;6.83;;;19.00;99.90;;;;;;5034318;28;20441;-60
2023/08/14 04:33:58;;;;;;;13.13;7.70;;;19.00;99.90;;;;;;5038553;28;20580;-60
2023/08/14 04:36:24;;;;;;;11.57;7.10;;;19.00;99.90;;;;;;5043230;28;21120;-59
2023/08/14 04:38:49;;;;;;;10.70;7.20;;;18.90;99.90;;;;;;5046131;28;20198;-59
2023/08/14 04:41:15;;;;;;;11.93;7.67;;;18.90;99.90;;;;;;5040323;28;20205;-59
2023/08/14 04:43:40;;;;;;;12.33;7.10;;;18.90;99.90;;;;;;5043288;28;20628;-58
2023/08/14 04:46:11;;;;;;;10.73;7.53;;;18.90;99.90;;;;;;5031497;28;20206;-59
2023/08/14 04:48:37;;;;;;;6.47;5.80;;;18.90;99.90;;;;;;5039780;28;20610;-59
2023/08/14 04:51:04;;;;;;;7.87;6.43;;;18.90;99.90;;;;;;5034830;28;20718;-58
2023/08/14 04:53:30;;;;;;;11.33;7.33;;;18.90;99.90;;;;;;5038951;28;20438;-59
2023/08/14 04:55:55;;;;;;;9.97;7.17;;;18.90;99.90;;;;;;5037969;28;20453;-58
2023/08/14 04:58:21;;;;;;;8.00;7.03;;;18.90;99.90;;;;;;5038089;28;20178;-60
2023/08/14 05:00:46;;;;;;;7.70;6.93;;;18.90;99.90;;;;;;5042320;28;20187;-60
2023/08/14 05:03:12;;;;;;;10.70;7.50;;;18.90;99.90;;;;;;5038211;28;20183;-59
2023/08/14 05:05:38;;;;;;;9.93;7.47;;;18.80;99.90;;;;;;5038886;28;20246;-59
2023/08/14 05:08:04;;;;;;;10.43;7.00;;;18.80;99.90;;;;;;5036144;28;20207;-59
2023/08/14 05:10:29;;;;;;;14.43;7.40;;;18.80;99.90;;;;;;5043180;28;20584;-59
2023/08/14 05:12:55;;;;;;;10.50;7.23;;;18.80;99.90;;;;;;5042719;28;20458;-59
2023/08/14 05:15:21;;;;;;;8.93;7.30;;;18.80;99.90;;;;;;5038460;28;20190;-58
2023/08/14 05:17:47;;;;;;;10.27;7.30;;;18.70;99.90;;;;;;5034724;28;20445;-59
2023/08/14 05:20:12;;;;;;;7.80;6.70;;;18.70;99.90;;;;;;5040556;28;20441;-58
2023/08/14 05:22:38;;;;;;;10.33;7.23;;;18.70;99.90;;;;;;5042177;28;20180;-59
2023/08/14 05:25:05;;;;;;;9.00;7.33;;;18.70;99.90;;;;;;5037502;28;20185;-59
2023/08/14 05:27:36;;;;;;;8.60;7.47;;;18.70;99.90;;;;;;5039498;28;20183;-59
2023/08/14 05:30:02;;;;;;;9.10;8.03;;;18.70;99.90;;;;;;5037302;28;20462;-59
2023/08/14 05:32:28;;;;;;;9.33;7.83;;;18.70;99.90;;;;;;5036357;28;20430;-59
2023/08/14 05:34:54;;;;;;;10.23;8.20;;;18.80;99.90;;;;;;5033414;28;20445;-60
2023/08/14 05:37:19;;;;;;;8.40;7.30;;;18.80;99.90;;;;;;5039015;28;20208;-59
2023/08/14 05:39:45;;;;;;;17.00;10.23;;;18.90;99.90;;;;;;5035540;28;20182;-59
2023/08/14 05:42:10;;;;;;;9.47;7.67;;;18.90;99.90;;;;;;5039708;28;20257;-58
2023/08/14 05:44:36;;;;;;;11.30;7.53;;;18.90;99.90;;;;;;5041388;28;20185;-59
2023/08/14 05:47:01;;;;;;;8.80;7.73;;;19.00;99.90;;;;;;5049962;28;20206;-59
2023/08/14 05:49:27;;;;;;;9.13;8.23;;;19.00;99.90;;;;;;5040661;28;20215;-58
2023/08/14 05:51:53;;;;;;;9.00;7.37;;;19.10;99.90;;;;;;5033195;28;21454;-59
2023/08/14 05:54:18;;;;;;;9.00;8.10;;;19.10;99.90;;;;;;5038386;28;20175;-59
2023/08/14 05:56:47;;;;;;;11.63;7.40;;;19.20;99.90;;;;;;5044188;28;20252;-59
2023/08/14 05:59:13;;;;;;;12.70;8.23;;;19.30;99.90;;;;;;5045592;28;20183;-58
2023/08/14 06:01:39;;;;;;;10.27;7.87;;;19.40;99.90;;;;;;5045991;28;20464;-59
2023/08/14 06:04:05;;;;;;;12.70;8.47;;;19.40;99.90;;;;;;5039468;28;20190;-59
2023/08/14 06:06:31;;;;;;;14.53;8.33;;;19.40;99.90;;;;;;5036228;28;20207;-58
2023/08/14 06:08:56;;;;;;;11.20;8.27;;;19.50;99.90;;;;;;5031699;28;20598;-59
2023/08/14 06:11:22;;;;;;;11.93;8.53;;;19.50;99.90;;;;;;5043417;28;20183;-58
2023/08/14 06:13:47;;;;;;;11.57;7.20;;;19.60;99.90;;;;;;5044006;28;20602;-58
2023/08/14 06:16:13;;;;;;;8.33;7.30;;;19.70;99.90;;;;;;5043185;28;20199;-59
2023/08/14 06:18:38;;;;;;;8.00;7.10;;;19.80;99.90;;;;;;5042977;28;20218;-60
2023/08/14 06:21:04;;;;;;;8.50;7.40;;;19.80;99.90;;;;;;5041801;28;20191;-59
2023/08/14 06:23:30;;;;;;;10.03;7.87;;;19.90;99.90;;;;;;5045864;28;20190;-58
2023/08/14 06:25:56;;;;;;;7.50;6.80;;;19.90;99.90;;;;;;5048290;28;20215;-59
2023/08/14 06:28:22;;;;;;;12.60;7.30;;;20.00;99.90;;;;;;5046846;28;20203;-59
2023/08/14 06:30:47;;;;;;;11.10;7.27;;;20.00;99.90;;;;;;5044480;28;20437;-59
2023/08/14 06:33:13;;;;;;;12.90;8.50;;;20.10;99.90;;;;;;5040557;28;20246;-58
2023/08/14 06:35:38;;;;;;;11.73;8.13;;;20.10;99.90;;;;;;5044629;28;20199;-59
2023/08/14 06:38:04;;;;;;;9.63;8.63;;;20.10;99.90;;;;;;5047245;28;20590;-58
2023/08/14 06:40:30;;;;;;;8.67;7.80;;;20.10;99.90;;;;;;5047010;28;20224;-59
2023/08/14 06:42:55;;;;;;;9.47;7.17;;;20.10;99.90;;;;;;5037262;28;20180;-59
2023/08/14 06:45:21;;;;;;;8.87;7.63;;;20.10;99.90;;;;;;5037901;28;20686;-59
2023/08/14 06:47:47;;;;;;;13.27;9.00;;;20.10;99.90;;;;;;5041037;28;20174;-60
2023/08/14 06:50:13;;;;;;;11.30;8.13;;;20.00;99.90;;;;;;5045373;28;20449;-59
2023/08/14 06:52:39;;;;;;;8.47;7.47;;;20.00;99.90;;;;;;5043588;28;20544;-58
2023/08/14 06:55:05;;;;;;;11.00;8.17;;;20.10;99.90;;;;;;5037608;28;20437;-59
2023/08/14 06:57:31;;;;;;;8.93;8.00;;;20.10;99.90;;;;;;5041757;28;20182;-59
2023/08/14 06:59:56;;;;;;;8.50;7.60;;;20.20;99.90;;;;;;5045597;28;20458;-58
2023/08/14 07:02:22;;;;;;;9.10;7.67;;;20.40;99.90;;;;;;5040033;28;20180;-57
2023/08/14 07:04:48;;;;;;;10.50;7.60;;;20.50;99.90;;;;;;5045441;28;20186;-60
2023/08/14 07:07:13;;;;;;;9.87;7.03;;;20.60;99.90;;;;;;5047301;28;20211;-59
2023/08/14 07:09:39;;;;;;;8.10;6.77;;;20.70;99.90;;;;;;5043731;28;20207;-59
2023/08/14 07:12:05;;;;;;;9.63;7.63;;;20.80;99.90;;;;;;5038253;28;20167;-59
2023/08/14 07:14:31;;;;;;;11.10;7.40;;;20.90;99.90;;;;;;5039452;28;20240;-59
2023/08/14 07:16:57;;;;;;;8.00;7.17;;;21.00;99.90;;;;;;5042771;28;20278;-59
2023/08/14 07:19:23;;;;;;;7.60;6.80;;;21.10;99.90;;;;;;5046240;28;20462;-60
2023/08/14 07:21:48;;;;;;;8.20;7.07;;;21.20;99.90;;;;;;5031673;28;20179;-60
2023/08/14 07:24:14;;;;;;;8.23;6.90;;;21.30;99.90;;;;;;5041695;28;20187;-59
2023/08/14 07:26:40;;;;;;;7.60;6.40;;;21.30;99.90;;;;;;5040990;28;20219;-58
2023/08/14 07:29:07;;;;;;;7.53;6.20;;;21.40;99.90;;;;;;5036094;28;20232;-58
2023/08/14 07:31:32;;;;;;;10.83;6.53;;;21.60;99.90;;;;;;5041148;28;20999;-59
2023/08/14 07:33:58;;;;;;;10.30;6.90;;;21.70;99.90;;;;;;5043597;28;20434;-59
2023/08/14 07:36:23;;;;;;;7.33;6.07;;;21.80;99.90;;;;;;5047177;28;20206;-59
2023/08/14 07:38:49;;;;;;;9.57;6.23;;;21.90;99.90;;;;;;5037652;28;20195;-60
2023/08/14 07:41:14;;;;;;;7.57;6.60;;;22.00;99.90;;;;;;5045173;28;20266;-59
2023/08/14 07:43:40;;;;;;;7.77;5.83;;;22.10;99.90;;;;;;5047171;28;20213;-58
2023/08/14 07:46:07;;;;;;;8.63;5.30;;;22.20;99.90;;;;;;5043510;28;20255;-59
2023/08/14 07:48:33;;;;;;;8.70;5.90;;;22.30;99.90;;;;;;5032380;28;20195;-59
2023/08/14 07:50:59;;;;;;;6.23;5.63;;;22.40;99.90;;;;;;5031201;28;20427;-59
2023/08/14 07:53:24;;;;;;;5.60;5.07;;;22.50;99.90;;;;;;5034093;28;21150;-60
2023/08/14 07:55:50;;;;;;;6.63;5.77;;;22.60;99.90;;;;;;5041215;28;20234;-58
2023/08/14 07:58:17;;;;;;;7.07;5.50;;;22.70;99.90;;;;;;5046555;28;20191;-59
2023/08/14 08:00:43;;;;;;;5.63;5.00;;;22.80;99.90;;;;;;5043072;28;20187;-59
2023/08/14 08:03:09;;;;;;;5.30;4.50;;;22.90;99.90;;;;;;5037786;28;20870;-58
2023/08/14 08:05:34;;;;;;;7.53;5.10;;;22.90;99.90;;;;;;5037015;28;20519;-58
2023/08/14 08:08:01;;;;;;;5.70;4.63;;;23.00;99.90;;;;;;5044145;28;20202;-58
2023/08/14 08:10:27;;;;;;;5.23;4.53;;;23.10;99.90;;;;;;5041170;28;20247;-59
2023/08/14 08:12:53;;;;;;;5.77;5.20;;;23.10;99.90;;;;;;5040093;28;20434;-59
2023/08/14 08:15:18;;;;;;;9.13;6.60;;;23.20;99.90;;;;;;5041331;28;20460;-59
2023/08/14 08:17:44;;;;;;;5.83;5.10;;;23.20;99.90;;;;;;5038453;28;20256;-59
2023/08/14 08:20:11;;;;;;;6.13;5.20;;;23.30;99.90;;;;;;5036791;28;20321;-58
2023/08/14 08:22:37;;;;;;;5.90;4.73;;;23.30;99.90;;;;;;5038049;28;20513;-59
2023/08/14 08:25:03;;;;;;;5.73;4.70;;;23.40;99.90;;;;;;5043760;28;20969;-59
2023/08/14 08:27:29;;;;;;;7.43;4.70;;;23.50;99.90;;;;;;5034338;28;20603;-60
2023/08/14 08:29:55;;;;;;;5.00;4.27;;;23.60;99.90;;;;;;5034429;28;20587;-58
2023/08/14 08:32:20;;;;;;;8.10;4.40;;;23.70;99.90;;;;;;5041037;28;20244;-59
2023/08/14 08:34:46;;;;;;;6.57;4.50;;;23.70;99.90;;;;;;5045464;28;20264;-59
2023/08/14 08:37:11;;;;;;;5.63;5.00;;;23.80;99.90;;;;;;5045115;28;20199;-59
2023/08/14 08:39:37;;;;;;;4.87;4.47;;;23.90;99.90;;;;;;5046435;28;20210;-60
2023/08/14 08:42:06;;;;;;;4.80;4.40;;;24.00;99.90;;;;;;5034565;28;20663;-59
2023/08/14 08:44:33;;;;;;;7.13;5.03;;;24.10;99.90;;;;;;5038433;28;20740;-60
2023/08/14 08:47:10;;;;;;;4.70;4.30;;;24.20;99.90;;;;;;5040789;28;20441;-59
2023/08/14 08:49:36;;;;;;;7.30;4.13;;;24.30;99.90;;;;;;5037552;28;20567;-59
2023/08/14 08:52:03;;;;;;;7.10;4.00;;;24.40;99.90;;;;;;5041768;28;20433;-59
2023/08/14 08:54:30;;;;;;;4.60;4.20;;;24.50;99.90;;;;;;5036451;28;20520;-59
2023/08/14 08:56:56;;;;;;;5.43;4.40;;;24.60;99.90;;;;;;5038690;28;20796;-58
2023/08/14 08:59:22;;;;;;;7.30;4.70;;;24.70;99.90;;;;;;5042321;28;20584;-59
2023/08/14 09:01:48;;;;;;;6.90;4.47;;;24.70;99.90;;;;;;5039323;28;20818;-59
2023/08/14 09:04:14;;;;;;;4.60;4.13;;;24.80;99.90;;;;;;5042452;28;20428;-59
2023/08/14 09:06:40;;;;;;;5.33;4.17;;;25.00;99.90;;;;;;5035605;28;20452;-59
2023/08/14 09:09:08;;;;;;;7.60;4.03;;;25.10;99.90;;;;;;5037549;28;20211;-58
2023/08/14 09:11:34;;;;;;;8.43;4.80;;;25.20;99.90;;;;;;5042472;28;20171;-59
2023/08/14 09:14:00;;;;;;;9.50;4.50;;;25.30;99.90;;;;;;5041886;28;20435;-59
2023/08/14 09:16:27;;;;;;;6.00;3.97;;;25.50;99.90;;;;;;5044200;28;20229;-58
2023/08/14 09:18:57;;;;;;;5.87;4.20;;;25.60;99.90;;;;;;5043766;28;20175;-59
2023/08/14 09:21:24;;;;;;;6.00;4.07;;;25.60;99.90;;;;;;5044421;28;20425;-59
2023/08/14 09:23:50;;;;;;;6.83;3.90;;;25.70;99.90;;;;;;5046401;28;20425;-59
2023/08/14 09:26:15;;;;;;;5.53;4.47;;;25.80;99.90;;;;;;5046383;28;20460;-59
2023/08/14 09:28:41;;;;;;;6.23;4.37;;;25.90;99.90;;;;;;5049099;28;20202;-58
2023/08/14 09:31:08;;;;;;;6.70;4.90;;;26.10;99.90;;;;;;5047205;28;20181;-59
2023/08/14 09:33:35;;;;;;;3.87;3.50;;;26.20;99.90;;;;;;5044547;28;20860;-58
2023/08/14 09:36:01;;;;;;;7.30;4.00;;;26.20;99.90;;;;;;5045453;28;20460;-59
2023/08/14 09:38:27;;;;;;;5.80;4.40;;;26.30;99.90;;;;;;5045593;28;20412;-59
2023/08/14 09:40:57;;;;;;;5.80;4.40;;;26.30;99.90;;;;;;5050035;28;20198;-59
2023/08/14 09:43:24;;;;;;;6.53;4.70;;;26.40;99.90;;;;;;5041340;28;20703;-58
2023/08/14 09:45:58;;;;;;;5.30;3.80;;;26.60;99.90;;;;;;5035339;28;20238;-59
2023/08/14 09:48:42;;;;;;;10.33;4.00;;;26.70;99.90;;;;;;5035356;28;20717;-59
2023/08/14 09:51:18;;;;;;;6.57;4.00;;;26.80;96.10;;;;;;5044696;28;20512;-59
2023/08/14 09:53:49;;;;;;;5.43;4.10;;;27.00;94.60;;;;;;5049034;28;20179;-58
2023/08/14 09:56:19;;;;;;;6.43;4.50;;;27.10;94.50;;;;;;5043297;28;20202;-58
2023/08/14 09:58:47;;;;;;;5.57;4.60;;;27.30;92.70;;;;;;5039895;28;20193;-59
2023/08/14 10:01:18;;;;;;;5.30;4.40;;;27.40;87.30;;;;;;5043455;28;20175;-58
2023/08/14 10:03:47;;;;;;;5.50;4.23;;;27.60;75.60;;;;;;5041790;28;20290;-58
2023/08/14 10:06:13;;;;;;;5.30;4.17;;;27.80;71.20;;;;;;5045510;28;20214;-59
2023/08/14 10:08:42;;;;;;;4.67;3.90;;;28.00;69.10;;;;;;5046942;28;20194;-59
2023/08/14 10:11:11;;;;;;;6.00;3.97;;;28.10;69.00;;;;;;5043571;28;20199;-59
2023/08/14 10:13:43;;;;;;;6.80;4.13;;;28.30;66.90;;;;;;5049094;28;20183;-59
2023/08/14 10:16:14;;;;;;;8.00;4.00;;;28.40;61.90;;;;;;5044592;28;20203;-59
2023/08/14 10:18:41;;;;;;;5.78;4.18;;;28.50;62.30;;;;;;5048277;28;20179;-59
2023/08/14 10:21:11;;;;;;;3.58;3.28;;;28.60;62.20;;;;;;5049515;28;20209;-59
2023/08/14 10:23:38;;;;;;;6.00;4.00;;;28.60;60.10;;;;;;5042059;28;20186;-60
2023/08/14 10:26:06;;;;;;;10.18;3.88;;;28.80;58.90;;;;;;5037777;28;20215;-59
2023/08/14 10:28:32;;;;;;;7.00;3.95;;;28.70;57.00;;;;;;5036212;28;20191;-60
2023/08/14 10:30:59;;;;;;;8.35;4.00;;;28.70;56.70;;;;;;5044542;28;20819;-59
2023/08/14 10:33:25;;;;;;;10.13;4.35;;;28.70;57.70;;;;;;5046096;28;20870;-59
2023/08/14 10:35:55;;;;;;;4.13;3.72;;;28.70;57.90;;;;;;5048302;28;20340;-59
2023/08/14 10:38:24;;;;;;;7.68;4.50;;;28.80;57.30;;;;;;5040243;28;20701;-59
2023/08/14 10:40:52;;;;;;;7.32;4.15;;;28.80;56.70;;;;;;5044231;28;20171;-59
2023/08/14 10:43:17;;;;;;;7.32;4.70;;;28.80;56.80;;;;;;5041290;28;20554;-58
2023/08/14 10:45:43;;;;;;;4.82;3.90;;;28.80;58.10;;;;;;5046722;28;20195;-58
2023/08/14 10:48:09;;;;;;;5.13;4.05;;;28.70;59.40;;;;;;5046445;28;20174;-59
2023/08/14 10:50:35;;;;;;;4.70;3.67;;;28.70;60.30;;;;;;5044833;28;20194;-60
2023/08/14 10:53:04;;;;;;;3.85;3.53;;;28.80;59.60;;;;;;5037826;28;20641;-60
2023/08/14 10:55:37;;;;;;;8.60;3.90;;;29.00;57.90;;;;;;5043288;28;20197;-59
2023/08/14 10:58:28;;;;;;;6.30;3.70;;;29.30;57.70;;;;;;5040238;28;20732;-59
2023/08/14 11:00:54;;;;;;;9.27;4.57;;;29.50;56.10;;;;;;5048182;28;20666;-59
2023/08/14 11:03:19;;;;;;;7.93;4.63;;;29.70;56.50;;;;;;5032604;28;20178;-60
2023/08/14 11:05:45;;;;;;;5.65;3.85;;;29.80;56.30;;;;;;5038988;28;20188;-59
2023/08/14 11:08:12;;;;;;;5.38;4.07;;;29.90;55.70;;;;;;5041882;28;20250;-59
2023/08/14 11:10:39;;;;;;;6.38;4.40;;;30.00;55.20;;;;;;5048745;28;20541;-58
2023/08/14 11:13:09;;;;;;;7.95;3.80;;;30.10;54.70;;;;;;5045965;28;20599;-59
2023/08/14 11:15:36;;;;;;;10.25;4.30;;;30.20;55.10;;;;;;5049213;28;20274;-59
2023/08/14 11:18:10;;;;;;;19.77;4.53;;;30.30;54.90;;;;;;5035053;28;20185;-59
2023/08/14 11:20:44;;;;;;;6.20;3.70;;;30.40;55.50;;;;;;5035357;28;20272;-59
2023/08/14 11:23:10;;;;;;;5.60;4.13;;;30.60;55.90;;;;;;5041755;28;20183;-60
2023/08/14 11:25:37;;;;;;;6.30;3.80;;;30.70;54.90;;;;;;5033635;28;20543;-58
2023/08/14 11:28:03;;;;;;;5.32;3.63;;;30.90;54.40;;;;;;5037276;28;20312;-60
2023/08/14 11:30:34;;;;;;;4.53;3.47;;;30.90;51.40;;;;;;5034905;28;20327;-60
2023/08/14 11:33:04;;;;;;;5.30;3.45;;;31.10;50.40;;;;;;5038871;28;20173;-59
2023/08/14 11:35:29;;;;;;;12.70;4.15;;;31.20;47.90;;;;;;5032611;28;20222;-60
2023/08/14 11:37:55;;;;;;;4.75;3.30;;;31.20;47.60;;;;;;5041177;28;20719;-59
2023/08/14 11:40:21;;;;;;;6.03;3.65;;;31.30;47.20;;;;;;5044906;28;20179;-61
2023/08/14 11:42:46;;;;;;;6.80;3.67;;;31.30;47.50;;;;;;5041399;28;20180;-60
2023/08/14 11:45:12;;;;;;;8.40;3.22;;;31.30;47.40;;;;;;5042089;28;20203;-61
2023/08/14 11:47:49;;;;;;;5.55;3.25;;;31.40;47.70;;;;;;5037869;28;20258;-59
2023/08/14 11:50:17;;;;;;;4.90;3.45;;;31.60;47.10;;;;;;5038647;28;20272;-60
2023/08/14 11:52:44;;;;;;;4.50;3.50;;;31.70;47.60;;;;;;5041594;28;22066;-60
2023/08/14 11:55:10;;;;;;;3.70;3.17;;;31.90;47.60;;;;;;5058528;28;20183;-59
2023/08/14 11:57:37;;;;;;;4.85;3.35;;;31.90;45.70;;;;;;5037969;28;20180;-59
2023/08/14 12:00:10;;;;;;;3.55;2.95;;;31.80;46.30;;;;;;5043051;28;20185;-58
2023/08/14 12:02:37;;;;;;;5.05;3.20;;;31.90;46.30;;;;;;5040520;28;20211;-60
2023/08/14 12:05:04;;;;;;;5.75;3.35;;;32.00;44.10;;;;;;5032366;28;20228;-57
2023/08/14 12:07:30;;;;;;;5.00;2.85;;;32.10;45.60;;;;;;5037767;28;20204;-56
2023/08/14 12:09:57;;;;;;;4.15;3.47;;;32.20;45.10;;;;;;5039882;28;20260;-57
2023/08/14 12:12:24;;;;;;;8.68;4.22;;;32.20;44.90;;;;;;5042609;28;20199;-57
2023/08/14 12:14:52;;;;;;;5.68;3.90;;;32.10;47.00;;;;;;5041442;28;20188;-56
2023/08/14 12:17:20;;;;;;;5.10;3.65;;;31.80;48.40;;;;;;5042683;28;20221;-56
2023/08/14 12:19:53;;;;;;;6.80;4.22;;;31.20;47.50;;;;;;5045494;28;20213;-55
2023/08/14 12:22:21;;;;;;;6.38;3.95;;;30.70;49.90;;;;;;5042364;28;20238;-56
2023/08/14 12:24:46;;;;;;;5.00;3.53;;;30.20;52.90;;;;;;5037799;28;20563;-56
2023/08/14 12:27:28;;;;;;;7.43;4.47;;;30.00;54.40;;;;;;5041429;28;20219;-57
2023/08/14 12:29:54;;;;;;;6.82;4.00;;;30.00;55.60;;;;;;5037834;28;20198;-56
2023/08/14 12:32:22;;;;;;;6.93;3.45;;;29.90;54.80;;;;;;5041840;28;20180;-55
2023/08/14 12:34:48;;;;;;;4.47;3.40;;;30.00;54.60;;;;;;5039300;28;20655;-57
2023/08/14 12:37:16;;;;;;;4.35;3.65;;;30.10;54.30;;;;;;5045464;28;20709;-56
2023/08/14 12:39:52;;;;;;;8.05;3.53;;;30.40;52.40;;;;;;5041225;28;20185;-56
2023/08/14 12:42:18;;;;;;;5.30;3.30;;;30.50;51.70;;;;;;5046300;28;20166;-56